sensor_id;sensor_type;location;lat;lon;timestamp;pressure;altitude;pressure_sealevel;temperature;humidity
73700;BME280;62005;50.082;8.988;2023-06-22T00:00:50;100478.88;;;23.41;70.82
73700;BME280;62005;50.082;8.988;2023-06-22T00:03:20;100422.78;;;23.32;72.97
73700;BME280;62005;50.082;8.988;2023-06-22T00:05:46;100387.63;;;22.91;75.43
73700;BME280;62005;50.082;8.988;2023-06-22T00:08:12;100355.97;;;22.75;76.26
73700;BME280;62005;50.082;8.988;2023-06-22T00:10:37;100368.50;;;22.81;76.10
73700;BME280;62005;50.082;8.988;2023-06-22T00:13:03;100389.47;;;22.82;74.99
73700;BME280;62005;50.082;8.988;2023-06-22T00:15:29;100388.84;;;22.85;77.39
73700;BME280;62005;50.082;8.988;2023-06-22T00:17:54;100395.59;;;22.93;74.17
73700;BME280;62005;50.082;8.988;2023-06-22T00:20:19;100421.69;;;23.00;76.95
73700;BME280;62005;50.082;8.988;2023-06-22T00:22:45;100438.72;;;23.02;73.51
73700;BME280;62005;50.082;8.988;2023-06-22T00:25:11;100460.59;;;23.12;74.01
73700;BME280;62005;50.082;8.988;2023-06-22T00:27:36;100488.59;;;23.19;73.41
73700;BME280;62005;50.082;8.988;2023-06-22T00:30:02;100497.88;;;23.29;73.09
73700;BME280;62005;50.082;8.988;2023-06-22T00:32:28;100498.38;;;23.31;72.98
73700;BME280;62005;50.082;8.988;2023-06-22T00:34:53;100509.69;;;23.29;72.88
73700;BME280;62005;50.082;8.988;2023-06-22T00:37:19;100518.63;;;23.40;72.92
73700;BME280;62005;50.082;8.988;2023-06-22T00:39:44;100516.38;;;23.42;73.71
73700;BME280;62005;50.082;8.988;2023-06-22T00:42:10;100515.25;;;23.43;73.50
73700;BME280;62005;50.082;8.988;2023-06-22T00:44:36;100473.50;;;23.17;73.42
73700;BME280;62005;50.082;8.988;2023-06-22T00:47:02;100526.28;;;23.43;73.03
73700;BME280;62005;50.082;8.988;2023-06-22T00:49:28;100528.13;;;23.34;72.28
73700;BME280;62005;50.082;8.988;2023-06-22T00:51:54;100572.06;;;23.44;72.40
73700;BME280;62005;50.082;8.988;2023-06-22T00:54:20;100586.41;;;23.46;73.45
73700;BME280;62005;50.082;8.988;2023-06-22T00:56:51;100587.63;;;23.40;71.55
73700;BME280;62005;50.082;8.988;2023-06-22T00:59:20;100587.00;;;23.43;71.28
73700;BME280;62005;50.082;8.988;2023-06-22T01:01:45;100601.94;;;23.42;72.04
73700;BME280;62005;50.082;8.988;2023-06-22T01:04:11;100594.47;;;23.23;72.90
73700;BME280;62005;50.082;8.988;2023-06-22T01:06:43;100605.50;;;23.23;71.46
73700;BME280;62005;50.082;8.988;2023-06-22T01:09:15;100649.34;;;23.44;72.06
73700;BME280;62005;50.082;8.988;2023-06-22T01:11:53;100631.66;;;23.26;71.05
73700;BME280;62005;50.082;8.988;2023-06-22T01:14:24;100665.91;;;23.44;72.58
73700;BME280;62005;50.082;8.988;2023-06-22T01:16:54;100652.38;;;23.29;71.34
73700;BME280;62005;50.082;8.988;2023-06-22T01:21:52;100641.22;;;23.15;70.55
73700;BME280;62005;50.082;8.988;2023-06-22T01:24:30;100721.69;;;23.41;71.12
73700;BME280;62005;50.082;8.988;2023-06-22T01:29:27;100780.69;;;23.45;71.56
73700;BME280;62005;50.082;8.988;2023-06-22T01:31:55;100760.47;;;23.31;70.79
73700;BME280;62005;50.082;8.988;2023-06-22T01:34:24;100742.53;;;23.09;71.99
73700;BME280;62005;50.082;8.988;2023-06-22T01:36:55;100789.13;;;23.35;73.41
73700;BME280;62005;50.082;8.988;2023-06-22T01:39:22;100790.84;;;23.25;73.56
73700;BME280;62005;50.082;8.988;2023-06-22T01:41:52;100770.63;;;23.11;74.22
73700;BME280;62005;50.082;8.988;2023-06-22T01:44:18;100750.88;;;23.04;75.13
73700;BME280;62005;50.082;8.988;2023-06-22T01:46:44;100750.66;;;23.19;75.95
73700;BME280;62005;50.082;8.988;2023-06-22T01:49:10;100684.69;;;23.04;77.19
73700;BME280;62005;50.082;8.988;2023-06-22T01:51:36;100532.59;;;22.37;79.79
73700;BME280;62005;50.082;8.988;2023-06-22T01:54:02;100423.16;;;22.05;82.92
73700;BME280;62005;50.082;8.988;2023-06-22T02:00:03;62534.44;;;-140.13;100.00
73700;BME280;62005;50.082;8.988;2023-06-22T02:03:34;62534.44;;;-140.13;100.00
73700;BME280;62005;50.082;8.988;2023-06-22T02:07:03;62534.44;;;-140.13;100.00
73700;BME280;62005;50.082;8.988;2023-06-22T02:10:30;62534.44;;;-140.13;100.00
73700;BME280;62005;50.082;8.988;2023-06-22T02:13:56;62534.44;;;-140.13;100.00
73700;BME280;62005;50.082;8.988;2023-06-22T02:17:09;76232.47;;;-140.13;82.64
73700;BME280;62005;50.082;8.988;2023-06-22T02:20:37;62534.44;;;-140.13;100.00
73700;BME280;62005;50.082;8.988;2023-06-22T02:24:01;62534.44;;;-140.13;100.00
73700;BME280;62005;50.082;8.988;2023-06-22T02:27:25;62534.44;;;-140.13;100.00
73700;BME280;62005;50.082;8.988;2023-06-22T02:30:49;62534.44;;;-140.13;100.00
73700;BME280;62005;50.082;8.988;2023-06-22T02:34:13;62534.44;;;-140.13;100.00
73700;BME280;62005;50.082;8.988;2023-06-22T02:37:41;62534.44;;;-140.13;100.00
73700;BME280;62005;50.082;8.988;2023-06-22T02:41:08;62534.44;;;-140.13;100.00
73700;BME280;62005;50.082;8.988;2023-06-22T02:44:36;62534.44;;;-140.13;100.00
73700;BME280;62005;50.082;8.988;2023-06-22T02:48:00;62534.44;;;-140.13;100.00
73700;BME280;62005;50.082;8.988;2023-06-22T02:51:24;62534.44;;;-140.13;100.00
73700;BME280;62005;50.082;8.988;2023-06-22T02:54:48;62534.44;;;-140.13;100.00
73700;BME280;62005;50.082;8.988;2023-06-22T02:58:12;62534.44;;;-140.13;100.00
73700;BME280;62005;50.082;8.988;2023-06-22T03:01:36;62534.44;;;-140.13;100.00
73700;BME280;62005;50.082;8.988;2023-06-22T03:05:06;62534.44;;;-140.13;100.00
73700;BME280;62005;50.082;8.988;2023-06-22T03:08:30;62534.44;;;-140.13;100.00
73700;BME280;62005;50.082;8.988;2023-06-22T03:11:54;62534.44;;;-140.13;100.00
73700;BME280;62005;50.082;8.988;2023-06-22T03:15:18;62534.44;;;-140.13;100.00
73700;BME280;62005;50.082;8.988;2023-06-22T03:18:43;62534.44;;;-140.13;100.00
73700;BME280;62005;50.082;8.988;2023-06-22T03:22:07;62534.44;;;-140.13;100.00
73700;BME280;62005;50.082;8.988;2023-06-22T03:25:31;62534.44;;;-140.13;100.00
73700;BME280;62005;50.082;8.988;2023-06-22T03:28:55;62534.44;;;-140.13;100.00
73700;BME280;62005;50.082;8.988;2023-06-22T03:32:19;62534.44;;;-140.13;100.00
73700;BME280;62005;50.082;8.988;2023-06-22T03:35:43;62534.44;;;-140.13;100.00
73700;BME280;62005;50.082;8.988;2023-06-22T03:39:06;62534.44;;;-140.13;100.00
73700;BME280;62005;50.082;8.988;2023-06-22T03:42:30;62534.44;;;-140.13;100.00
73700;BME280;62005;50.082;8.988;2023-06-22T03:45:54;62534.44;;;-140.13;100.00
73700;BME280;62005;50.082;8.988;2023-06-22T03:49:18;62534.44;;;-140.13;100.00
73700;BME280;62005;50.082;8.988;2023-06-22T03:52:42;62534.44;;;-140.13;100.00
73700;BME280;62005;50.082;8.988;2023-06-22T03:56:06;62534.44;;;-140.13;100.00
73700;BME280;62005;50.082;8.988;2023-06-22T03:59:29;62534.44;;;-140.13;100.00
73700;BME280;62005;50.082;8.988;2023-06-22T04:02:53;62534.44;;;-140.13;100.00
73700;BME280;62005;50.082;8.988;2023-06-22T04:06:17;62534.44;;;-140.13;100.00
73700;BME280;62005;50.082;8.988;2023-06-22T04:09:43;62534.44;;;-140.13;100.00
73700;BME280;62005;50.082;8.988;2023-06-22T04:13:07;62534.44;;;-140.13;100.00
73700;BME280;62005;50.082;8.988;2023-06-22T04:16:31;62534.44;;;-140.13;100.00
73700;BME280;62005;50.082;8.988;2023-06-22T04:19:55;62534.44;;;-140.13;100.00
73700;BME280;62005;50.082;8.988;2023-06-22T04:23:19;62534.44;;;-140.13;100.00
73700;BME280;62005;50.082;8.988;2023-06-22T04:26:42;62534.44;;;-140.13;100.00
73700;BME280;62005;50.082;8.988;2023-06-22T04:30:09;62534.44;;;-140.13;100.00
73700;BME280;62005;50.082;8.988;2023-06-22T04:33:34;62534.44;;;-140.13;100.00
73700;BME280;62005;50.082;8.988;2023-06-22T04:36:58;62534.44;;;-140.13;100.00
73700;BME280;62005;50.082;8.988;2023-06-22T04:40:22;62534.44;;;-140.13;100.00
73700;BME280;62005;50.082;8.988;2023-06-22T04:43:46;62534.44;;;-140.13;100.00
73700;BME280;62005;50.082;8.988;2023-06-22T04:47:18;62534.44;;;-140.13;100.00
73700;BME280;62005;50.082;8.988;2023-06-22T04:50:42;62534.44;;;-140.13;100.00
73700;BME280;62005;50.082;8.988;2023-06-22T04:54:06;62534.44;;;-140.13;100.00
73700;BME280;62005;50.082;8.988;2023-06-22T04:57:30;62534.44;;;-140.13;100.00
73700;BME280;62005;50.082;8.988;2023-06-22T05:00:56;62534.44;;;-140.13;100.00
73700;BME280;62005;50.082;8.988;2023-06-22T05:03:46;100384.47;;;22.15;82.64
73700;BME280;62005;50.082;8.988;2023-06-22T05:07:10;62534.44;;;-140.13;100.00
73700;BME280;62005;50.082;8.988;2023-06-22T05:10:34;62534.44;;;-140.13;100.00
73700;BME280;62005;50.082;8.988;2023-06-22T05:13:26;100384.47;;;22.15;82.64
73700;BME280;62005;50.082;8.988;2023-06-22T05:15:51;100517.06;;;22.46;84.04
73700;BME280;62005;50.082;8.988;2023-06-22T05:19:15;62534.44;;;-140.13;100.00
73700;BME280;62005;50.082;8.988;2023-06-22T05:22:39;62534.44;;;-140.13;100.00
73700;BME280;62005;50.082;8.988;2023-06-22T05:25:09;100515.50;;;22.95;85.19
73700;BME280;62005;50.082;8.988;2023-06-22T05:28:33;62534.44;;;-140.13;100.00
73700;BME280;62005;50.082;8.988;2023-06-22T05:31:47;76232.47;;;-140.13;85.19
73700;BME280;62005;50.082;8.988;2023-06-22T05:34:13;100510.59;;;23.97;82.52
73700;BME280;62005;50.082;8.988;2023-06-22T05:36:38;100502.84;;;24.13;81.13
73700;BME280;62005;50.082;8.988;2023-06-22T05:39:14;100508.50;;;24.57;80.55
73700;BME280;62005;50.082;8.988;2023-06-22T05:41:39;100499.81;;;24.86;78.71
73700;BME280;62005;50.082;8.988;2023-06-22T05:44:05;100490.19;;;25.05;77.33
73700;BME280;62005;50.082;8.988;2023-06-22T05:47:28;62534.44;;;-140.13;100.00
73700;BME280;62005;50.082;8.988;2023-06-22T05:49:53;100495.94;;;25.61;75.20
73700;BME280;62005;50.082;8.988;2023-06-22T05:52:18;100491.97;;;25.93;75.00
73700;BME280;62005;50.082;8.988;2023-06-22T05:54:44;100488.94;;;26.12;74.79
73700;BME280;62005;50.082;8.988;2023-06-22T05:57:21;100486.72;;;26.48;72.38
73700;BME280;62005;50.082;8.988;2023-06-22T05:59:49;100485.09;;;26.64;72.00
73700;BME280;62005;50.082;8.988;2023-06-22T06:02:14;100484.59;;;27.05;71.95
73700;BME280;62005;50.082;8.988;2023-06-22T06:04:40;100476.88;;;27.27;69.12
73700;BME280;62005;50.082;8.988;2023-06-22T06:07:05;100483.59;;;27.35;68.38
73700;BME280;62005;50.082;8.988;2023-06-22T06:09:30;100477.66;;;27.53;69.64
73700;BME280;62005;50.082;8.988;2023-06-22T06:11:56;100464.81;;;27.78;68.96
73700;BME280;62005;50.082;8.988;2023-06-22T06:14:21;100464.69;;;28.03;66.82
73700;BME280;62005;50.082;8.988;2023-06-22T06:16:48;100474.53;;;28.22;67.89
73700;BME280;62005;50.082;8.988;2023-06-22T06:19:14;100479.03;;;28.35;66.30
73700;BME280;62005;50.082;8.988;2023-06-22T06:21:39;100464.38;;;28.26;65.79
73700;BME280;62005;50.082;8.988;2023-06-22T06:25:03;62534.44;;;-140.13;100.00
73700;BME280;62005;50.082;8.988;2023-06-22T06:28:11;100464.38;;;28.26;65.79
73700;BME280;62005;50.082;8.988;2023-06-22T06:31:35;62534.44;;;-140.13;100.00
73700;BME280;62005;50.082;8.988;2023-06-22T06:34:59;62534.44;;;-140.13;100.00
73700;BME280;62005;50.082;8.988;2023-06-22T06:38:23;62534.44;;;-140.13;100.00
73700;BME280;62005;50.082;8.988;2023-06-22T06:41:47;62534.44;;;-140.13;100.00
73700;BME280;62005;50.082;8.988;2023-06-22T06:45:11;62534.44;;;-140.13;100.00
73700;BME280;62005;50.082;8.988;2023-06-22T06:48:36;62534.44;;;-140.13;100.00
73700;BME280;62005;50.082;8.988;2023-06-22T06:52:00;62534.44;;;-140.13;100.00
73700;BME280;62005;50.082;8.988;2023-06-22T06:54:25;100436.59;;;29.20;62.35
73700;BME280;62005;50.082;8.988;2023-06-22T06:56:52;100444.03;;;29.28;62.75
73700;BME280;62005;50.082;8.988;2023-06-22T06:59:18;100446.25;;;29.34;63.12
73700;BME280;62005;50.082;8.988;2023-06-22T07:01:43;100439.75;;;29.42;61.90
73700;BME280;62005;50.082;8.988;2023-06-22T07:04:09;100440.34;;;29.48;61.36
73700;BME280;62005;50.082;8.988;2023-06-22T07:06:35;100437.56;;;29.60;61.58
73700;BME280;62005;50.082;8.988;2023-06-22T07:09:00;100433.16;;;29.59;59.99
73700;BME280;62005;50.082;8.988;2023-06-22T07:11:26;100450.63;;;29.68;58.50
73700;BME280;62005;50.082;8.988;2023-06-22T07:13:52;100442.25;;;29.68;60.36
73700;BME280;62005;50.082;8.988;2023-06-22T07:16:17;100443.16;;;29.84;59.92
73700;BME280;62005;50.082;8.988;2023-06-22T07:18:43;100444.31;;;29.95;59.59
73700;BME280;62005;50.082;8.988;2023-06-22T07:21:08;100430.13;;;30.00;59.34
73700;BME280;62005;50.082;8.988;2023-06-22T07:23:34;100438.75;;;30.07;58.71
73700;BME280;62005;50.082;8.988;2023-06-22T07:25:59;100422.47;;;30.09;56.84
73700;BME280;62005;50.082;8.988;2023-06-22T07:28:28;100415.97;;;30.05;56.00
73700;BME280;62005;50.082;8.988;2023-06-22T07:30:56;100414.25;;;29.89;56.28
73700;BME280;62005;50.082;8.988;2023-06-22T07:33:22;100418.78;;;29.69;57.67
73700;BME280;62005;50.082;8.988;2023-06-22T07:35:47;100415.53;;;29.91;58.01
73700;BME280;62005;50.082;8.988;2023-06-22T07:38:13;100423.84;;;30.03;57.47
73700;BME280;62005;50.082;8.988;2023-06-22T07:40:39;100414.78;;;30.18;58.13
73700;BME280;62005;50.082;8.988;2023-06-22T07:43:06;100402.97;;;29.97;55.53
73700;BME280;62005;50.082;8.988;2023-06-22T07:45:32;100428.06;;;30.09;57.04
73700;BME280;62005;50.082;8.988;2023-06-22T07:47:59;100409.19;;;30.18;57.60
73700;BME280;62005;50.082;8.988;2023-06-22T07:50:25;100418.03;;;30.20;55.00
73700;BME280;62005;50.082;8.988;2023-06-22T07:52:50;100408.97;;;30.35;55.89
73700;BME280;62005;50.082;8.988;2023-06-22T07:55:18;100392.00;;;30.28;56.04
73700;BME280;62005;50.082;8.988;2023-06-22T07:57:43;100394.28;;;30.38;56.49
73700;BME280;62005;50.082;8.988;2023-06-22T08:00:09;100395.97;;;30.55;55.95
73700;BME280;62005;50.082;8.988;2023-06-22T08:02:43;100390.50;;;30.58;53.99
73700;BME280;62005;50.082;8.988;2023-06-22T08:05:10;100394.72;;;30.80;54.34
73700;BME280;62005;50.082;8.988;2023-06-22T08:07:36;100399.03;;;30.78;55.65
73700;BME280;62005;50.082;8.988;2023-06-22T08:10:02;100394.06;;;30.99;55.11
73700;BME280;62005;50.082;8.988;2023-06-22T08:12:28;100391.47;;;30.78;49.84
73700;BME280;62005;50.082;8.988;2023-06-22T08:14:53;100385.13;;;30.66;52.92
73700;BME280;62005;50.082;8.988;2023-06-22T08:17:19;100386.75;;;30.67;51.41
73700;BME280;62005;50.082;8.988;2023-06-22T08:19:44;100390.72;;;30.66;51.33
73700;BME280;62005;50.082;8.988;2023-06-22T08:22:09;100397.41;;;30.77;51.19
73700;BME280;62005;50.082;8.988;2023-06-22T08:24:34;100402.13;;;30.88;50.74
73700;BME280;62005;50.082;8.988;2023-06-22T08:27:00;100393.44;;;30.78;51.19
73700;BME280;62005;50.082;8.988;2023-06-22T08:29:25;100382.78;;;30.68;51.56
73700;BME280;62005;50.082;8.988;2023-06-22T08:31:50;100387.41;;;30.76;51.90
73700;BME280;62005;50.082;8.988;2023-06-22T08:34:16;100386.03;;;30.70;48.66
73700;BME280;62005;50.082;8.988;2023-06-22T08:36:43;100387.66;;;30.71;49.84
73700;BME280;62005;50.082;8.988;2023-06-22T08:39:17;100382.06;;;30.71;49.77
73700;BME280;62005;50.082;8.988;2023-06-22T08:41:42;100382.06;;;30.71;49.90
73700;BME280;62005;50.082;8.988;2023-06-22T08:44:08;100374.84;;;30.70;51.62
73700;BME280;62005;50.082;8.988;2023-06-22T08:46:33;100380.00;;;30.68;51.34
73700;BME280;62005;50.082;8.988;2023-06-22T08:48:59;100380.53;;;30.73;49.19
73700;BME280;62005;50.082;8.988;2023-06-22T08:51:24;100365.53;;;30.78;51.68
73700;BME280;62005;50.082;8.988;2023-06-22T08:53:50;100355.50;;;30.77;49.16
73700;BME280;62005;50.082;8.988;2023-06-22T08:56:15;100361.59;;;30.51;49.81
73700;BME280;62005;50.082;8.988;2023-06-22T08:58:40;100367.16;;;30.51;49.69
73700;BME280;62005;50.082;8.988;2023-06-22T09:01:06;100355.91;;;30.47;50.39
73700;BME280;62005;50.082;8.988;2023-06-22T09:03:31;100373.28;;;30.56;49.94
73700;BME280;62005;50.082;8.988;2023-06-22T09:05:58;100350.25;;;30.59;51.70
73700;BME280;62005;50.082;8.988;2023-06-22T09:08:23;100342.06;;;30.67;49.97
73700;BME280;62005;50.082;8.988;2023-06-22T09:10:49;100359.22;;;30.53;49.50
73700;BME280;62005;50.082;8.988;2023-06-22T09:13:14;100369.78;;;30.59;50.00
73700;BME280;62005;50.082;8.988;2023-06-22T09:15:40;100352.84;;;30.52;49.30
73700;BME280;62005;50.082;8.988;2023-06-22T09:18:05;100349.50;;;30.47;50.34
73700;BME280;62005;50.082;8.988;2023-06-22T09:20:30;100354.47;;;30.53;49.86
73700;BME280;62005;50.082;8.988;2023-06-22T09:22:56;100371.34;;;30.73;49.96
73700;BME280;62005;50.082;8.988;2023-06-22T09:25:21;100366.22;;;30.75;49.37
73700;BME280;62005;50.082;8.988;2023-06-22T09:27:47;100361.16;;;30.64;49.12
73700;BME280;62005;50.082;8.988;2023-06-22T09:30:13;100360.47;;;30.68;49.63
73700;BME280;62005;50.082;8.988;2023-06-22T09:32:38;100348.59;;;30.71;50.70
73700;BME280;62005;50.082;8.988;2023-06-22T09:35:04;100350.44;;;30.67;50.74
73700;BME280;62005;50.082;8.988;2023-06-22T09:38:36;62534.44;;;-140.13;100.00
73700;BME280;62005;50.082;8.988;2023-06-22T09:41:02;100329.91;;;30.87;50.67
73700;BME280;62005;50.082;8.988;2023-06-22T09:43:27;100331.97;;;30.90;49.33
73700;BME280;62005;50.082;8.988;2023-06-22T09:45:53;100313.19;;;30.75;48.59
73700;BME280;62005;50.082;8.988;2023-06-22T09:48:18;100310.63;;;30.82;49.10
73700;BME280;62005;50.082;8.988;2023-06-22T09:50:43;100316.66;;;30.99;48.92
73700;BME280;62005;50.082;8.988;2023-06-22T09:53:09;100336.41;;;30.91;48.58
73700;BME280;62005;50.082;8.988;2023-06-22T09:55:34;100324.47;;;30.78;49.63
73700;BME280;62005;50.082;8.988;2023-06-22T09:58:00;100308.84;;;30.61;49.11
73700;BME280;62005;50.082;8.988;2023-06-22T10:00:25;100334.38;;;30.48;49.53
73700;BME280;62005;50.082;8.988;2023-06-22T10:02:52;100317.84;;;30.27;49.68
73700;BME280;62005;50.082;8.988;2023-06-22T10:05:17;100315.19;;;30.19;50.39
73700;BME280;62005;50.082;8.988;2023-06-22T10:07:43;100308.41;;;30.32;50.19
73700;BME280;62005;50.082;8.988;2023-06-22T10:10:10;100314.31;;;30.42;49.10
73700;BME280;62005;50.082;8.988;2023-06-22T10:12:35;100316.22;;;30.54;49.79
73700;BME280;62005;50.082;8.988;2023-06-22T10:15:00;100303.41;;;30.53;49.75
73700;BME280;62005;50.082;8.988;2023-06-22T10:17:25;100305.31;;;30.64;49.78
73700;BME280;62005;50.082;8.988;2023-06-22T10:19:51;100298.66;;;30.53;49.38
73700;BME280;62005;50.082;8.988;2023-06-22T10:22:16;100298.97;;;30.64;49.59
73700;BME280;62005;50.082;8.988;2023-06-22T10:24:41;100295.97;;;30.73;49.85
73700;BME280;62005;50.082;8.988;2023-06-22T10:27:11;100275.50;;;30.81;50.48
73700;BME280;62005;50.082;8.988;2023-06-22T10:29:37;100267.50;;;30.79;49.41
73700;BME280;62005;50.082;8.988;2023-06-22T10:32:02;100271.53;;;30.82;49.97
73700;BME280;62005;50.082;8.988;2023-06-22T10:34:28;100262.41;;;30.69;49.79
73700;BME280;62005;50.082;8.988;2023-06-22T10:36:53;100243.28;;;30.71;49.79
73700;BME280;62005;50.082;8.988;2023-06-22T10:39:18;100256.19;;;30.76;49.36
73700;BME280;62005;50.082;8.988;2023-06-22T10:41:44;100238.44;;;30.68;48.84
73700;BME280;62005;50.082;8.988;2023-06-22T10:44:09;100253.88;;;30.78;49.05
73700;BME280;62005;50.082;8.988;2023-06-22T10:46:34;100241.53;;;30.79;50.42
73700;BME280;62005;50.082;8.988;2023-06-22T10:49:00;100228.47;;;30.83;49.53
73700;BME280;62005;50.082;8.988;2023-06-22T10:51:25;100223.97;;;30.94;50.40
73700;BME280;62005;50.082;8.988;2023-06-22T10:53:51;100218.66;;;30.89;48.71
73700;BME280;62005;50.082;8.988;2023-06-22T10:56:17;100215.69;;;30.82;48.36
73700;BME280;62005;50.082;8.988;2023-06-22T10:58:44;100210.94;;;30.82;49.72
73700;BME280;62005;50.082;8.988;2023-06-22T11:01:10;100193.34;;;30.82;48.96
73700;BME280;62005;50.082;8.988;2023-06-22T11:03:35;100189.56;;;30.90;50.11
73700;BME280;62005;50.082;8.988;2023-06-22T11:06:00;100190.19;;;30.99;50.09
73700;BME280;62005;50.082;8.988;2023-06-22T11:08:26;100182.88;;;31.10;49.09
73700;BME280;62005;50.082;8.988;2023-06-22T11:10:51;100170.22;;;31.16;48.57
73700;BME280;62005;50.082;8.988;2023-06-22T11:13:17;100182.94;;;31.13;49.35
73700;BME280;62005;50.082;8.988;2023-06-22T11:15:42;100157.28;;;31.08;49.12
73700;BME280;62005;50.082;8.988;2023-06-22T11:18:07;100179.50;;;31.20;48.99
73700;BME280;62005;50.082;8.988;2023-06-22T11:20:33;100175.97;;;31.23;49.63
73700;BME280;62005;50.082;8.988;2023-06-22T11:23:03;100164.97;;;31.30;48.94
73700;BME280;62005;50.082;8.988;2023-06-22T11:25:29;100166.56;;;31.31;48.38
73700;BME280;62005;50.082;8.988;2023-06-22T11:27:54;100164.25;;;31.33;48.09
73700;BME280;62005;50.082;8.988;2023-06-22T11:30:19;100149.09;;;31.34;47.43
73700;BME280;62005;50.082;8.988;2023-06-22T11:32:45;100154.69;;;31.34;47.88
73700;BME280;62005;50.082;8.988;2023-06-22T11:35:10;100156.13;;;31.28;47.66
73700;BME280;62005;50.082;8.988;2023-06-22T11:37:35;100143.53;;;31.34;47.73
73700;BME280;62005;50.082;8.988;2023-06-22T11:40:01;100145.44;;;31.49;47.40
73700;BME280;62005;50.082;8.988;2023-06-22T11:42:28;100136.03;;;31.57;47.35
73700;BME280;62005;50.082;8.988;2023-06-22T11:44:53;100130.44;;;31.57;47.52
73700;BME280;62005;50.082;8.988;2023-06-22T11:47:18;100140.75;;;31.53;47.39
73700;BME280;62005;50.082;8.988;2023-06-22T11:49:44;100145.81;;;31.47;47.64
73700;BME280;62005;50.082;8.988;2023-06-22T11:52:09;100120.75;;;31.51;47.62
73700;BME280;62005;50.082;8.988;2023-06-22T11:54:34;100116.03;;;31.55;46.31
73700;BME280;62005;50.082;8.988;2023-06-22T11:57:00;100120.44;;;31.56;47.06
73700;BME280;62005;50.082;8.988;2023-06-22T11:59:25;100123.25;;;31.56;47.76
73700;BME280;62005;50.082;8.988;2023-06-22T12:01:51;100124.28;;;31.48;47.10
73700;BME280;62005;50.082;8.988;2023-06-22T12:04:16;100125.00;;;31.45;47.09
73700;BME280;62005;50.082;8.988;2023-06-22T12:06:42;100109.41;;;31.44;47.33
73700;BME280;62005;50.082;8.988;2023-06-22T12:09:09;100112.50;;;31.39;47.25
73700;BME280;62005;50.082;8.988;2023-06-22T12:11:34;100105.44;;;31.45;47.00
73700;BME280;62005;50.082;8.988;2023-06-22T12:14:00;100100.59;;;31.42;48.18
73700;BME280;62005;50.082;8.988;2023-06-22T12:16:30;100113.09;;;31.48;47.99
73700;BME280;62005;50.082;8.988;2023-06-22T12:18:55;100115.44;;;31.46;48.57
73700;BME280;62005;50.082;8.988;2023-06-22T12:21:20;100105.38;;;31.41;47.46
73700;BME280;62005;50.082;8.988;2023-06-22T12:23:46;100112.81;;;31.53;48.62
73700;BME280;62005;50.082;8.988;2023-06-22T12:26:11;100108.97;;;31.61;46.49
73700;BME280;62005;50.082;8.988;2023-06-22T12:28:36;100109.84;;;31.65;47.25
73700;BME280;62005;50.082;8.988;2023-06-22T12:31:02;100102.63;;;31.64;47.09
73700;BME280;62005;50.082;8.988;2023-06-22T12:33:27;100102.47;;;31.57;47.42
73700;BME280;62005;50.082;8.988;2023-06-22T12:35:52;100110.75;;;31.50;46.74
73700;BME280;62005;50.082;8.988;2023-06-22T12:38:18;100091.03;;;31.43;47.27
73700;BME280;62005;50.082;8.988;2023-06-22T12:40:43;100095.81;;;31.42;47.64
73700;BME280;62005;50.082;8.988;2023-06-22T12:43:08;100099.72;;;31.38;47.47
73700;BME280;62005;50.082;8.988;2023-06-22T12:45:34;100097.38;;;31.40;47.09
73700;BME280;62005;50.082;8.988;2023-06-22T12:47:59;100073.94;;;31.29;47.58
73700;BME280;62005;50.082;8.988;2023-06-22T12:50:25;100086.03;;;31.33;47.56
73700;BME280;62005;50.082;8.988;2023-06-22T12:52:50;100078.53;;;31.37;49.18
73700;BME280;62005;50.082;8.988;2023-06-22T12:55:15;100075.00;;;31.40;47.94
73700;BME280;62005;50.082;8.988;2023-06-22T12:57:41;100080.75;;;31.47;48.02
73700;BME280;62005;50.082;8.988;2023-06-22T13:00:07;100069.56;;;31.47;48.17
73700;BME280;62005;50.082;8.988;2023-06-22T13:02:34;100074.72;;;31.45;48.16
73700;BME280;62005;50.082;8.988;2023-06-22T13:05:00;100075.16;;;31.47;48.30
73700;BME280;62005;50.082;8.988;2023-06-22T13:07:25;100068.75;;;31.46;47.86
73700;BME280;62005;50.082;8.988;2023-06-22T13:09:51;100078.38;;;31.49;47.20
73700;BME280;62005;50.082;8.988;2023-06-22T13:12:22;100084.84;;;31.53;47.71
73700;BME280;62005;50.082;8.988;2023-06-22T13:14:47;100076.75;;;31.48;47.52
73700;BME280;62005;50.082;8.988;2023-06-22T13:17:13;100059.91;;;31.44;47.82
73700;BME280;62005;50.082;8.988;2023-06-22T13:19:39;100085.72;;;31.57;47.04
73700;BME280;62005;50.082;8.988;2023-06-22T13:22:05;100079.41;;;31.60;47.13
73700;BME280;62005;50.082;8.988;2023-06-22T13:24:30;100080.28;;;31.64;47.19
73700;BME280;62005;50.082;8.988;2023-06-22T13:26:56;100075.41;;;31.61;47.65
73700;BME280;62005;50.082;8.988;2023-06-22T13:29:21;100085.00;;;31.60;47.41
73700;BME280;62005;50.082;8.988;2023-06-22T13:31:46;100068.09;;;31.53;47.62
73700;BME280;62005;50.082;8.988;2023-06-22T13:34:11;100059.41;;;31.58;47.38
73700;BME280;62005;50.082;8.988;2023-06-22T13:36:37;100041.13;;;31.64;48.10
73700;BME280;62005;50.082;8.988;2023-06-22T13:39:03;100030.09;;;31.71;48.69
73700;BME280;62005;50.082;8.988;2023-06-22T13:41:28;100041.50;;;31.85;47.91
73700;BME280;62005;50.082;8.988;2023-06-22T13:43:54;100035.22;;;31.88;47.93
73700;BME280;62005;50.082;8.988;2023-06-22T13:46:19;100038.44;;;31.90;47.17
73700;BME280;62005;50.082;8.988;2023-06-22T13:48:45;100032.22;;;32.00;45.99
73700;BME280;62005;50.082;8.988;2023-06-22T13:51:10;100030.75;;;32.06;45.89
73700;BME280;62005;50.082;8.988;2023-06-22T13:53:35;100015.56;;;32.07;45.41
73700;BME280;62005;50.082;8.988;2023-06-22T13:56:01;100008.38;;;32.06;46.29